sensor_id;sensor_type;location;lat;lon;timestamp;P1;durP1;ratioP1;P2;durP2;ratioP2
14169;SDS011;7164;50.524;8.676;2022-07-15T00:02:04;5.03;;;1.58;;
14169;SDS011;7164;50.524;8.676;2022-07-15T00:04:31;3.38;;;1.40;;
14169;SDS011;7164;50.524;8.676;2022-07-15T00:06:57;5.22;;;1.20;;
14169;SDS011;7164;50.524;8.676;2022-07-15T00:09:23;3.95;;;1.15;;
14169;SDS011;7164;50.524;8.676;2022-07-15T00:12:08;3.17;;;1.20;;
14169;SDS011;7164;50.524;8.676;2022-07-15T00:14:35;3.92;;;1.48;;
14169;SDS011;7164;50.524;8.676;2022-07-15T00:17:01;5.53;;;1.38;;
14169;SDS011;7164;50.524;8.676;2022-07-15T00:19:26;4.65;;;1.85;;
14169;SDS011;7164;50.524;8.676;2022-07-15T00:21:52;3.15;;;1.40;;
14169;SDS011;7164;50.524;8.676;2022-07-15T00:24:18;2.00;;;1.20;;
14169;SDS011;7164;50.524;8.676;2022-07-15T00:26:43;3.30;;;1.30;;
14169;SDS011;7164;50.524;8.676;2022-07-15T00:29:09;1.50;;;0.95;;
14169;SDS011;7164;50.524;8.676;2022-07-15T00:31:35;6.13;;;1.30;;
14169;SDS011;7164;50.524;8.676;2022-07-15T00:34:01;2.72;;;1.10;;
14169;SDS011;7164;50.524;8.676;2022-07-15T00:36:27;2.63;;;1.58;;
14169;SDS011;7164;50.524;8.676;2022-07-15T00:38:53;4.22;;;1.33;;
14169;SDS011;7164;50.524;8.676;2022-07-15T00:41:18;4.13;;;1.27;;
14169;SDS011;7164;50.524;8.676;2022-07-15T00:43:44;1.90;;;1.20;;
14169;SDS011;7164;50.524;8.676;2022-07-15T00:46:09;3.38;;;1.30;;
14169;SDS011;7164;50.524;8.676;2022-07-15T00:48:39;3.58;;;1.30;;
14169;SDS011;7164;50.524;8.676;2022-07-15T00:51:04;4.13;;;1.20;;
14169;SDS011;7164;50.524;8.676;2022-07-15T00:53:30;1.70;;;1.08;;
14169;SDS011;7164;50.524;8.676;2022-07-15T00:55:59;4.72;;;1.48;;
14169;SDS011;7164;50.524;8.676;2022-07-15T00:58:26;4.28;;;1.92;;
14169;SDS011;7164;50.524;8.676;2022-07-15T01:00:54;5.05;;;1.10;;
14169;SDS011;7164;50.524;8.676;2022-07-15T01:03:23;6.43;;;1.20;;
14169;SDS011;7164;50.524;8.676;2022-07-15T01:05:52;3.47;;;1.20;;
14169;SDS011;7164;50.524;8.676;2022-07-15T01:08:21;1.63;;;1.00;;
14169;SDS011;7164;50.524;8.676;2022-07-15T01:10:47;3.67;;;1.23;;
14169;SDS011;7164;50.524;8.676;2022-07-15T01:13:14;3.13;;;1.50;;
14169;SDS011;7164;50.524;8.676;2022-07-15T01:15:40;2.38;;;1.25;;
14169;SDS011;7164;50.524;8.676;2022-07-15T01:18:07;2.58;;;1.23;;
14169;SDS011;7164;50.524;8.676;2022-07-15T01:20:32;1.92;;;1.27;;
14169;SDS011;7164;50.524;8.676;2022-07-15T01:22:58;1.52;;;1.25;;
14169;SDS011;7164;50.524;8.676;2022-07-15T01:25:29;7.50;;;1.30;;
14169;SDS011;7164;50.524;8.676;2022-07-15T01:27:55;5.32;;;1.25;;
14169;SDS011;7164;50.524;8.676;2022-07-15T01:30:20;5.22;;;1.00;;
14169;SDS011;7164;50.524;8.676;2022-07-15T01:32:46;1.73;;;1.40;;
14169;SDS011;7164;50.524;8.676;2022-07-15T01:35:12;2.88;;;1.25;;
14169;SDS011;7164;50.524;8.676;2022-07-15T01:37:37;1.42;;;1.20;;
14169;SDS011;7164;50.524;8.676;2022-07-15T01:40:04;2.28;;;1.02;;
14169;SDS011;7164;50.524;8.676;2022-07-15T01:42:30;1.90;;;1.20;;
14169;SDS011;7164;50.524;8.676;2022-07-15T01:44:57;1.85;;;1.20;;
14169;SDS011;7164;50.524;8.676;2022-07-15T01:47:22;2.75;;;1.30;;
14169;SDS011;7164;50.524;8.676;2022-07-15T01:49:48;2.15;;;1.20;;
14169;SDS011;7164;50.524;8.676;2022-07-15T01:52:14;3.08;;;1.33;;
14169;SDS011;7164;50.524;8.676;2022-07-15T01:54:39;5.72;;;1.95;;
14169;SDS011;7164;50.524;8.676;2022-07-15T01:57:05;3.78;;;1.23;;
14169;SDS011;7164;50.524;8.676;2022-07-15T01:59:31;2.00;;;1.20;;
14169;SDS011;7164;50.524;8.676;2022-07-15T02:01:57;3.50;;;1.10;;
14169;SDS011;7164;50.524;8.676;2022-07-15T02:04:22;2.38;;;1.40;;
14169;SDS011;7164;50.524;8.676;2022-07-15T02:06:48;2.95;;;1.20;;
14169;SDS011;7164;50.524;8.676;2022-07-15T02:09:14;3.70;;;1.73;;
14169;SDS011;7164;50.524;8.676;2022-07-15T02:11:41;3.95;;;1.27;;
14169;SDS011;7164;50.524;8.676;2022-07-15T02:14:06;2.28;;;1.20;;
14169;SDS011;7164;50.524;8.676;2022-07-15T02:16:33;2.10;;;1.20;;
14169;SDS011;7164;50.524;8.676;2022-07-15T02:18:59;2.25;;;1.40;;
14169;SDS011;7164;50.524;8.676;2022-07-15T02:21:25;5.32;;;1.35;;
14169;SDS011;7164;50.524;8.676;2022-07-15T02:23:52;4.35;;;1.63;;
14169;SDS011;7164;50.524;8.676;2022-07-15T02:26:18;1.98;;;1.23;;
14169;SDS011;7164;50.524;8.676;2022-07-15T02:28:44;2.22;;;1.33;;
14169;SDS011;7164;50.524;8.676;2022-07-15T02:31:10;5.10;;;1.50;;
14169;SDS011;7164;50.524;8.676;2022-07-15T02:33:36;3.20;;;1.30;;
14169;SDS011;7164;50.524;8.676;2022-07-15T02:36:03;2.85;;;1.63;;
14169;SDS011;7164;50.524;8.676;2022-07-15T02:38:29;2.13;;;1.20;;
14169;SDS011;7164;50.524;8.676;2022-07-15T02:40:55;2.38;;;1.55;;
14169;SDS011;7164;50.524;8.676;2022-07-15T02:43:20;1.67;;;1.17;;
14169;SDS011;7164;50.524;8.676;2022-07-15T02:45:47;3.63;;;1.55;;
14169;SDS011;7164;50.524;8.676;2022-07-15T02:48:12;5.32;;;1.50;;
14169;SDS011;7164;50.524;8.676;2022-07-15T02:50:40;4.13;;;1.40;;
14169;SDS011;7164;50.524;8.676;2022-07-15T02:53:06;3.95;;;1.85;;
14169;SDS011;7164;50.524;8.676;2022-07-15T02:55:31;1.73;;;1.10;;
14169;SDS011;7164;50.524;8.676;2022-07-15T02:57:57;1.67;;;1.10;;
14169;SDS011;7164;50.524;8.676;2022-07-15T03:00:23;3.45;;;1.52;;
14169;SDS011;7164;50.524;8.676;2022-07-15T03:02:49;3.28;;;1.55;;
14169;SDS011;7164;50.524;8.676;2022-07-15T03:05:15;2.80;;;2.00;;
14169;SDS011;7164;50.524;8.676;2022-07-15T03:07:42;4.30;;;1.67;;
14169;SDS011;7164;50.524;8.676;2022-07-15T03:10:08;3.15;;;1.70;;
14169;SDS011;7164;50.524;8.676;2022-07-15T03:12:34;3.25;;;1.73;;
14169;SDS011;7164;50.524;8.676;2022-07-15T03:17:44;1.83;;;1.50;;
14169;SDS011;7164;50.524;8.676;2022-07-15T03:20:10;2.85;;;1.42;;
14169;SDS011;7164;50.524;8.676;2022-07-15T03:22:36;2.58;;;1.58;;
14169;SDS011;7164;50.524;8.676;2022-07-15T03:25:02;2.95;;;1.30;;
14169;SDS011;7164;50.524;8.676;2022-07-15T03:27:28;4.35;;;1.67;;
14169;SDS011;7164;50.524;8.676;2022-07-15T03:29:53;3.17;;;2.22;;
14169;SDS011;7164;50.524;8.676;2022-07-15T03:32:19;4.60;;;2.08;;
14169;SDS011;7164;50.524;8.676;2022-07-15T03:34:45;4.65;;;1.80;;
14169;SDS011;7164;50.524;8.676;2022-07-15T03:37:11;2.53;;;1.40;;
14169;SDS011;7164;50.524;8.676;2022-07-15T03:39:37;8.15;;;3.55;;
14169;SDS011;7164;50.524;8.676;2022-07-15T03:42:03;12.63;;;5.88;;
14169;SDS011;7164;50.524;8.676;2022-07-15T03:44:29;13.05;;;2.30;;
14169;SDS011;7164;50.524;8.676;2022-07-15T03:46:54;3.20;;;1.45;;
14169;SDS011;7164;50.524;8.676;2022-07-15T03:49:20;3.05;;;1.70;;
14169;SDS011;7164;50.524;8.676;2022-07-15T03:51:46;3.90;;;1.50;;
14169;SDS011;7164;50.524;8.676;2022-07-15T03:54:12;3.80;;;1.65;;
14169;SDS011;7164;50.524;8.676;2022-07-15T03:56:38;2.10;;;1.70;;
14169;SDS011;7164;50.524;8.676;2022-07-15T03:59:04;4.88;;;1.40;;
14169;SDS011;7164;50.524;8.676;2022-07-15T04:01:29;2.58;;;1.48;;
14169;SDS011;7164;50.524;8.676;2022-07-15T04:03:55;3.47;;;2.08;;
14169;SDS011;7164;50.524;8.676;2022-07-15T04:06:21;2.70;;;1.50;;
14169;SDS011;7164;50.524;8.676;2022-07-15T04:08:47;8.05;;;1.58;;
14169;SDS011;7164;50.524;8.676;2022-07-15T04:11:14;1.75;;;1.20;;
14169;SDS011;7164;50.524;8.676;2022-07-15T04:13:41;4.22;;;1.65;;
14169;SDS011;7164;50.524;8.676;2022-07-15T04:16:07;6.32;;;1.60;;
14169;SDS011;7164;50.524;8.676;2022-07-15T04:18:33;2.50;;;1.35;;
14169;SDS011;7164;50.524;8.676;2022-07-15T04:20:59;1.40;;;1.20;;
14169;SDS011;7164;50.524;8.676;2022-07-15T04:23:26;2.67;;;1.30;;
14169;SDS011;7164;50.524;8.676;2022-07-15T04:25:52;1.48;;;1.20;;
14169;SDS011;7164;50.524;8.676;2022-07-15T04:28:18;5.43;;;1.65;;
14169;SDS011;7164;50.524;8.676;2022-07-15T04:30:47;2.65;;;1.30;;
14169;SDS011;7164;50.524;8.676;2022-07-15T04:33:14;2.15;;;1.45;;
14169;SDS011;7164;50.524;8.676;2022-07-15T04:35:40;1.63;;;1.25;;
14169;SDS011;7164;50.524;8.676;2022-07-15T04:38:06;3.55;;;1.45;;
14169;SDS011;7164;50.524;8.676;2022-07-15T04:40:32;4.75;;;1.50;;
14169;SDS011;7164;50.524;8.676;2022-07-15T04:42:58;4.05;;;1.60;;
14169;SDS011;7164;50.524;8.676;2022-07-15T04:45:24;1.58;;;1.25;;
14169;SDS011;7164;50.524;8.676;2022-07-15T04:47:51;5.43;;;2.03;;
14169;SDS011;7164;50.524;8.676;2022-07-15T04:50:16;7.85;;;2.83;;
14169;SDS011;7164;50.524;8.676;2022-07-15T04:53:00;11.00;;;4.95;;
14169;SDS011;7164;50.524;8.676;2022-07-15T04:55:26;10.07;;;4.65;;
14169;SDS011;7164;50.524;8.676;2022-07-15T04:57:52;10.07;;;4.55;;
14169;SDS011;7164;50.524;8.676;2022-07-15T05:00:18;10.50;;;4.53;;
14169;SDS011;7164;50.524;8.676;2022-07-15T05:02:44;5.88;;;3.08;;
14169;SDS011;7164;50.524;8.676;2022-07-15T05:05:09;6.00;;;2.17;;
14169;SDS011;7164;50.524;8.676;2022-07-15T05:07:35;4.15;;;2.67;;
14169;SDS011;7164;50.524;8.676;2022-07-15T05:10:02;10.00;;;2.60;;
14169;SDS011;7164;50.524;8.676;2022-07-15T05:12:31;7.82;;;2.00;;
14169;SDS011;7164;50.524;8.676;2022-07-15T05:14:56;3.45;;;1.85;;
14169;SDS011;7164;50.524;8.676;2022-07-15T05:17:22;3.78;;;2.03;;
14169;SDS011;7164;50.524;8.676;2022-07-15T05:19:48;7.75;;;2.05;;
14169;SDS011;7164;50.524;8.676;2022-07-15T05:22:13;2.85;;;1.58;;
14169;SDS011;7164;50.524;8.676;2022-07-15T05:24:41;6.63;;;1.90;;
14169;SDS011;7164;50.524;8.676;2022-07-15T05:27:07;4.15;;;1.92;;
14169;SDS011;7164;50.524;8.676;2022-07-15T05:29:32;2.70;;;1.90;;
14169;SDS011;7164;50.524;8.676;2022-07-15T05:31:58;7.80;;;1.70;;
14169;SDS011;7164;50.524;8.676;2022-07-15T05:34:24;3.88;;;1.90;;
14169;SDS011;7164;50.524;8.676;2022-07-15T05:36:49;2.85;;;1.55;;
14169;SDS011;7164;50.524;8.676;2022-07-15T05:39:15;5.72;;;1.65;;
14169;SDS011;7164;50.524;8.676;2022-07-15T05:41:40;6.85;;;1.60;;
14169;SDS011;7164;50.524;8.676;2022-07-15T05:44:06;6.68;;;1.90;;
14169;SDS011;7164;50.524;8.676;2022-07-15T05:46:32;3.05;;;2.05;;
14169;SDS011;7164;50.524;8.676;2022-07-15T05:48:57;2.70;;;1.65;;
14169;SDS011;7164;50.524;8.676;2022-07-15T05:51:23;5.28;;;1.90;;
14169;SDS011;7164;50.524;8.676;2022-07-15T05:53:48;5.25;;;1.70;;
14169;SDS011;7164;50.524;8.676;2022-07-15T05:56:14;12.15;;;2.17;;
14169;SDS011;7164;50.524;8.676;2022-07-15T05:58:40;3.75;;;2.00;;
14169;SDS011;7164;50.524;8.676;2022-07-15T06:01:05;4.78;;;1.90;;
14169;SDS011;7164;50.524;8.676;2022-07-15T06:03:31;6.68;;;1.80;;
14169;SDS011;7164;50.524;8.676;2022-07-15T06:05:57;4.53;;;1.88;;
14169;SDS011;7164;50.524;8.676;2022-07-15T06:08:23;4.82;;;1.90;;
14169;SDS011;7164;50.524;8.676;2022-07-15T06:10:50;14.90;;;2.63;;
14169;SDS011;7164;50.524;8.676;2022-07-15T06:13:15;6.68;;;2.17;;
14169;SDS011;7164;50.524;8.676;2022-07-15T06:15:49;4.65;;;1.67;;
14169;SDS011;7164;50.524;8.676;2022-07-15T06:18:16;6.60;;;2.00;;
14169;SDS011;7164;50.524;8.676;2022-07-15T06:20:41;7.55;;;1.40;;
14169;SDS011;7164;50.524;8.676;2022-07-15T06:23:07;10.05;;;1.65;;
14169;SDS011;7164;50.524;8.676;2022-07-15T06:25:33;5.88;;;1.75;;
14169;SDS011;7164;50.524;8.676;2022-07-15T06:27:58;4.03;;;1.63;;
14169;SDS011;7164;50.524;8.676;2022-07-15T06:30:24;3.55;;;1.77;;
14169;SDS011;7164;50.524;8.676;2022-07-15T06:32:49;3.70;;;1.73;;
14169;SDS011;7164;50.524;8.676;2022-07-15T06:35:15;6.50;;;1.77;;
14169;SDS011;7164;50.524;8.676;2022-07-15T06:37:41;6.35;;;1.75;;
14169;SDS011;7164;50.524;8.676;2022-07-15T06:40:06;6.47;;;1.92;;
14169;SDS011;7164;50.524;8.676;2022-07-15T06:42:33;5.82;;;1.67;;
14169;SDS011;7164;50.524;8.676;2022-07-15T06:44:58;10.75;;;1.50;;
14169;SDS011;7164;50.524;8.676;2022-07-15T06:50:41;8.05;;;1.77;;
14169;SDS011;7164;50.524;8.676;2022-07-15T06:53:07;9.30;;;1.75;;
14169;SDS011;7164;50.524;8.676;2022-07-15T06:55:33;2.53;;;1.55;;
14169;SDS011;7164;50.524;8.676;2022-07-15T06:57:58;3.95;;;1.65;;
14169;SDS011;7164;50.524;8.676;2022-07-15T07:00:24;6.63;;;1.52;;
14169;SDS011;7164;50.524;8.676;2022-07-15T07:02:50;4.25;;;1.70;;
14169;SDS011;7164;50.524;8.676;2022-07-15T07:05:16;3.75;;;1.50;;
14169;SDS011;7164;50.524;8.676;2022-07-15T07:07:42;3.47;;;1.38;;
14169;SDS011;7164;50.524;8.676;2022-07-15T07:10:07;3.42;;;1.30;;
14169;SDS011;7164;50.524;8.676;2022-07-15T07:12:37;3.92;;;1.73;;
14169;SDS011;7164;50.524;8.676;2022-07-15T07:15:02;3.38;;;1.48;;
14169;SDS011;7164;50.524;8.676;2022-07-15T07:17:29;5.28;;;1.38;;
14169;SDS011;7164;50.524;8.676;2022-07-15T07:19:54;4.47;;;1.80;;
14169;SDS011;7164;50.524;8.676;2022-07-15T07:22:21;1.25;;;1.10;;
14169;SDS011;7164;50.524;8.676;2022-07-15T07:24:46;5.82;;;1.45;;
14169;SDS011;7164;50.524;8.676;2022-07-15T07:27:12;2.83;;;1.95;;
14169;SDS011;7164;50.524;8.676;2022-07-15T07:29:38;6.15;;;1.70;;
14169;SDS011;7164;50.524;8.676;2022-07-15T07:32:04;4.40;;;1.55;;
14169;SDS011;7164;50.524;8.676;2022-07-15T07:34:30;7.35;;;1.58;;
14169;SDS011;7164;50.524;8.676;2022-07-15T07:36:55;5.55;;;1.52;;
14169;SDS011;7164;50.524;8.676;2022-07-15T07:39:21;5.47;;;1.70;;
14169;SDS011;7164;50.524;8.676;2022-07-15T07:41:46;5.85;;;1.33;;
14169;SDS011;7164;50.524;8.676;2022-07-15T07:44:14;5.60;;;1.42;;
14169;SDS011;7164;50.524;8.676;2022-07-15T07:46:40;5.05;;;1.35;;
14169;SDS011;7164;50.524;8.676;2022-07-15T07:49:05;3.92;;;1.10;;
14169;SDS011;7164;50.524;8.676;2022-07-15T07:51:31;4.05;;;1.30;;
14169;SDS011;7164;50.524;8.676;2022-07-15T07:53:56;4.43;;;1.52;;
14169;SDS011;7164;50.524;8.676;2022-07-15T07:56:23;3.97;;;1.70;;
14169;SDS011;7164;50.524;8.676;2022-07-15T07:58:48;3.55;;;1.58;;
14169;SDS011;7164;50.524;8.676;2022-07-15T08:01:15;4.13;;;1.40;;
14169;SDS011;7164;50.524;8.676;2022-07-15T08:03:42;6.13;;;1.55;;
14169;SDS011;7164;50.524;8.676;2022-07-15T08:06:08;8.02;;;2.00;;
14169;SDS011;7164;50.524;8.676;2022-07-15T08:08:33;7.85;;;2.28;;
14169;SDS011;7164;50.524;8.676;2022-07-15T08:10:59;5.32;;;1.40;;
14169;SDS011;7164;50.524;8.676;2022-07-15T08:13:25;3.70;;;1.70;;
14169;SDS011;7164;50.524;8.676;2022-07-15T08:15:54;4.20;;;1.52;;
14169;SDS011;7164;50.524;8.676;2022-07-15T08:18:21;4.28;;;1.42;;
14169;SDS011;7164;50.524;8.676;2022-07-15T08:20:46;3.85;;;1.73;;
14169;SDS011;7164;50.524;8.676;2022-07-15T08:23:12;6.43;;;1.75;;
14169;SDS011;7164;50.524;8.676;2022-07-15T08:25:39;5.15;;;1.73;;
14169;SDS011;7164;50.524;8.676;2022-07-15T08:28:05;5.20;;;1.70;;
14169;SDS011;7164;50.524;8.676;2022-07-15T08:30:32;3.35;;;1.63;;
14169;SDS011;7164;50.524;8.676;2022-07-15T08:32:59;5.82;;;1.50;;
14169;SDS011;7164;50.524;8.676;2022-07-15T08:35:25;4.47;;;1.67;;
14169;SDS011;7164;50.524;8.676;2022-07-15T08:37:51;2.65;;;1.65;;
14169;SDS011;7164;50.524;8.676;2022-07-15T08:40:17;4.28;;;1.55;;
14169;SDS011;7164;50.524;8.676;2022-07-15T08:42:43;3.42;;;1.48;;
14169;SDS011;7164;50.524;8.676;2022-07-15T08:45:11;4.93;;;1.30;;
14169;SDS011;7164;50.524;8.676;2022-07-15T08:47:39;4.50;;;1.70;;
14169;SDS011;7164;50.524;8.676;2022-07-15T08:50:08;3.38;;;1.27;;
14169;SDS011;7164;50.524;8.676;2022-07-15T08:52:36;5.30;;;1.60;;
14169;SDS011;7164;50.524;8.676;2022-07-15T08:55:02;5.20;;;1.80;;
14169;SDS011;7164;50.524;8.676;2022-07-15T08:57:29;3.25;;;1.50;;
14169;SDS011;7164;50.524;8.676;2022-07-15T08:59:55;4.20;;;1.60;;
14169;SDS011;7164;50.524;8.676;2022-07-15T09:02:20;3.25;;;1.38;;
14169;SDS011;7164;50.524;8.676;2022-07-15T09:10:24;6.80;;;1.52;;
14169;SDS011;7164;50.524;8.676;2022-07-15T09:13:12;2.35;;;1.35;;
14169;SDS011;7164;50.524;8.676;2022-07-15T09:15:56;2.70;;;1.38;;
14169;SDS011;7164;50.524;8.676;2022-07-15T09:18:25;4.13;;;1.40;;
14169;SDS011;7164;50.524;8.676;2022-07-15T09:20:53;5.20;;;1.92;;
14169;SDS011;7164;50.524;8.676;2022-07-15T09:23:26;3.78;;;2.35;;
14169;SDS011;7164;50.524;8.676;2022-07-15T09:26:00;3.20;;;2.50;;
14169;SDS011;7164;50.524;8.676;2022-07-15T09:29:02;14.10;;;3.25;;
14169;SDS011;7164;50.524;8.676;2022-07-15T09:31:48;3.05;;;2.35;;
14169;SDS011;7164;50.524;8.676;2022-07-15T09:34:58;3.10;;;2.17;;
14169;SDS011;7164;50.524;8.676;2022-07-15T09:37:25;5.18;;;2.53;;
14169;SDS011;7164;50.524;8.676;2022-07-15T09:39:55;3.25;;;1.98;;
14169;SDS011;7164;50.524;8.676;2022-07-15T09:42:22;4.72;;;2.20;;
14169;SDS011;7164;50.524;8.676;2022-07-15T09:44:48;5.60;;;2.10;;
14169;SDS011;7164;50.524;8.676;2022-07-15T09:47:16;3.92;;;2.08;;
14169;SDS011;7164;50.524;8.676;2022-07-15T09:52:13;2.38;;;1.73;;
14169;SDS011;7164;50.524;8.676;2022-07-15T09:57:07;2.25;;;1.77;;
14169;SDS011;7164;50.524;8.676;2022-07-15T09:59:39;2.63;;;1.55;;
14169;SDS011;7164;50.524;8.676;2022-07-15T10:02:05;7.90;;;2.05;;
14169;SDS011;7164;50.524;8.676;2022-07-15T10:04:31;3.75;;;1.67;;
14169;SDS011;7164;50.524;8.676;2022-07-15T10:06:59;2.85;;;1.60;;
14169;SDS011;7164;50.524;8.676;2022-07-15T10:09:28;2.15;;;1.48;;
14169;SDS011;7164;50.524;8.676;2022-07-15T10:12:07;4.38;;;1.70;;
14169;SDS011;7164;50.524;8.676;2022-07-15T10:14:46;3.67;;;1.85;;
14169;SDS011;7164;50.524;8.676;2022-07-15T10:29:56;2.95;;;1.08;;
14169;SDS011;7164;50.524;8.676;2022-07-15T10:32:28;6.45;;;1.63;;
14169;SDS011;7164;50.524;8.676;2022-07-15T10:34:53;2.90;;;1.42;;
14169;SDS011;7164;50.524;8.676;2022-07-15T10:37:19;5.40;;;1.20;;
14169;SDS011;7164;50.524;8.676;2022-07-15T10:39:57;6.13;;;1.20;;
14169;SDS011;7164;50.524;8.676;2022-07-15T10:43:15;4.05;;;1.23;;
14169;SDS011;7164;50.524;8.676;2022-07-15T10:45:23;6.75;;;1.23;;
14169;SDS011;7164;50.524;8.676;2022-07-15T10:47:49;1.92;;;1.05;;
14169;SDS011;7164;50.524;8.676;2022-07-15T10:50:50;2.95;;;1.20;;
14169;SDS011;7164;50.524;8.676;2022-07-15T10:59:14;3.95;;;1.05;;
14169;SDS011;7164;50.524;8.676;2022-07-15T11:04:26;2.30;;;0.90;;
14169;SDS011;7164;50.524;8.676;2022-07-15T11:15:24;1.42;;;1.10;;
14169;SDS011;7164;50.524;8.676;2022-07-15T11:17:51;2.35;;;1.00;;
14169;SDS011;7164;50.524;8.676;2022-07-15T11:20:21;1.77;;;0.93;;
14169;SDS011;7164;50.524;8.676;2022-07-15T11:22:53;5.43;;;1.20;;
14169;SDS011;7164;50.524;8.676;2022-07-15T11:25:39;6.88;;;1.63;;
14169;SDS011;7164;50.524;8.676;2022-07-15T11:30:37;5.07;;;0.98;;
14169;SDS011;7164;50.524;8.676;2022-07-15T11:33:06;1.70;;;1.13;;
14169;SDS011;7164;50.524;8.676;2022-07-15T11:38:18;3.67;;;1.10;;
14169;SDS011;7164;50.524;8.676;2022-07-15T11:40:48;2.38;;;1.27;;
14169;SDS011;7164;50.524;8.676;2022-07-15T11:43:36;5.15;;;1.10;;
14169;SDS011;7164;50.524;8.676;2022-07-15T11:46:21;1.88;;;1.02;;
14169;SDS011;7164;50.524;8.676;2022-07-15T11:52:11;3.20;;;1.23;;
14169;SDS011;7164;50.524;8.676;2022-07-15T11:55:04;4.35;;;1.50;;
14169;SDS011;7164;50.524;8.676;2022-07-15T11:57:33;5.70;;;1.38;;
14169;SDS011;7164;50.524;8.676;2022-07-15T11:59:59;8.35;;;1.45;;
14169;SDS011;7164;50.524;8.676;2022-07-15T12:02:27;1.52;;;0.80;;
14169;SDS011;7164;50.524;8.676;2022-07-15T12:05:06;2.83;;;0.80;;
14169;SDS011;7164;50.524;8.676;2022-07-15T12:07:43;5.57;;;1.77;;
14169;SDS011;7164;50.524;8.676;2022-07-15T12:10:11;3.72;;;1.23;;
14169;SDS011;7164;50.524;8.676;2022-07-15T12:12:41;3.92;;;1.30;;
14169;SDS011;7164;50.524;8.676;2022-07-15T12:15:18;2.67;;;0.97;;
14169;SDS011;7164;50.524;8.676;2022-07-15T12:17:44;2.22;;;0.90;;
14169;SDS011;7164;50.524;8.676;2022-07-15T12:20:11;4.15;;;1.13;;
14169;SDS011;7164;50.524;8.676;2022-07-15T12:22:37;1.85;;;1.30;;
14169;SDS011;7164;50.524;8.676;2022-07-15T12:25:03;4.43;;;2.05;;
14169;SDS011;7164;50.524;8.676;2022-07-15T12:27:32;2.63;;;1.00;;
14169;SDS011;7164;50.524;8.676;2022-07-15T12:30:02;2.13;;;1.20;;
14169;SDS011;7164;50.524;8.676;2022-07-15T12:32:30;4.97;;;1.45;;
14169;SDS011;7164;50.524;8.676;2022-07-15T12:34:57;2.45;;;1.15;;
14169;SDS011;7164;50.524;8.676;2022-07-15T12:37:45;3.08;;;1.38;;
14169;SDS011;7164;50.524;8.676;2022-07-15T12:40:14;2.65;;;1.00;;
14169;SDS011;7164;50.524;8.676;2022-07-15T12:42:47;4.35;;;1.20;;
14169;SDS011;7164;50.524;8.676;2022-07-15T12:45:15;1.65;;;0.90;;
14169;SDS011;7164;50.524;8.676;2022-07-15T12:53:15;4.60;;;1.65;;
14169;SDS011;7164;50.524;8.676;2022-07-15T12:59:03;1.63;;;1.13;;
14169;SDS011;7164;50.524;8.676;2022-07-15T13:01:29;1.52;;;1.10;;
14169;SDS011;7164;50.524;8.676;2022-07-15T13:03:55;3.03;;;0.88;;
14169;SDS011;7164;50.524;8.676;2022-07-15T13:06:21;2.55;;;1.25;;
14169;SDS011;7164;50.524;8.676;2022-07-15T13:08:46;5.43;;;1.40;;
14169;SDS011;7164;50.524;8.676;2022-07-15T13:11:12;6.32;;;1.30;;
14169;SDS011;7164;50.524;8.676;2022-07-15T13:13:39;2.65;;;0.90;;
14169;SDS011;7164;50.524;8.676;2022-07-15T13:16:05;4.63;;;1.23;;
14169;SDS011;7164;50.524;8.676;2022-07-15T13:18:32;2.25;;;1.17;;
14169;SDS011;7164;50.524;8.676;2022-07-15T13:20:58;3.63;;;1.30;;
14169;SDS011;7164;50.524;8.676;2022-07-15T13:23:24;1.50;;;1.02;;
14169;SDS011;7164;50.524;8.676;2022-07-15T13:26:03;2.35;;;1.30;;
14169;SDS011;7164;50.524;8.676;2022-07-15T13:28:28;3.20;;;1.20;;
14169;SDS011;7164;50.524;8.676;2022-07-15T13:30:54;7.57;;;1.60;;
14169;SDS011;7164;50.524;8.676;2022-07-15T13:33:20;2.88;;;1.10;;
14169;SDS011;7164;50.524;8.676;2022-07-15T13:35:46;3.38;;;1.30;;
14169;SDS011;7164;50.524;8.676;2022-07-15T13:38:11;3.25;;;1.40;;
14169;SDS011;7164;50.524;8.676;2022-07-15T13:40:37;3.58;;;1.52;;
14169;SDS011;7164;50.524;8.676;2022-07-15T13:43:03;2.67;;;1.38;;
14169;SDS011;7164;50.524;8.676;2022-07-15T13:45:29;2.55;;;1.00;;
14169;SDS011;7164;50.524;8.676;2022-07-15T13:47:55;2.17;;;1.17;;
14169;SDS011;7164;50.524;8.676;2022-07-15T13:50:21;2.88;;;1.23;;
14169;SDS011;7164;50.524;8.676;2022-07-15T13:53:04;1.25;;;1.13;;
14169;SDS011;7164;50.524;8.676;2022-07-15T13:55:30;2.75;;;1.20;;
14169;SDS011;7164;50.524;8.676;2022-07-15T13:57:56;3.85;;;1.45;;
14169;SDS011;7164;50.524;8.676;2022-07-15T14:00:22;2.58;;;1.42;;
14169;SDS011;7164;50.524;8.676;2022-07-15T14:02:49;1.38;;;1.00;;
14169;SDS011;7164;50.524;8.676;2022-07-15T14:05:17;2.25;;;1.08;;
14169;SDS011;7164;50.524;8.676;2022-07-15T14:07:43;2.47;;;1.20;;
14169;SDS011;7164;50.524;8.676;2022-07-15T14:10:09;2.35;;;1.17;;
14169;SDS011;7164;50.524;8.676;2022-07-15T14:12:36;3.80;;;1.25;;
14169;SDS011;7164;50.524;8.676;2022-07-15T14:15:02;2.50;;;1.35;;
14169;SDS011;7164;50.524;8.676;2022-07-15T14:17:29;3.70;;;1.33;;
14169;SDS011;7164;50.524;8.676;2022-07-15T14:19:54;3.00;;;1.85;;
14169;SDS011;7164;50.524;8.676;2022-07-15T14:22:20;7.10;;;1.50;;
14169;SDS011;7164;50.524;8.676;2022-07-15T14:24:47;3.38;;;1.50;;
14169;SDS011;7164;50.524;8.676;2022-07-15T14:27:12;1.80;;;1.17;;
14169;SDS011;7164;50.524;8.676;2022-07-15T14:29:38;3.95;;;1.13;;
14169;SDS011;7164;50.524;8.676;2022-07-15T14:32:04;3.83;;;1.10;;
14169;SDS011;7164;50.524;8.676;2022-07-15T14:34:30;1.88;;;1.10;;
14169;SDS011;7164;50.524;8.676;2022-07-15T14:36:55;4.13;;;1.23;;
14169;SDS011;7164;50.524;8.676;2022-07-15T14:39:21;2.30;;;1.40;;
14169;SDS011;7164;50.524;8.676;2022-07-15T14:41:49;1.80;;;1.08;;
14169;SDS011;7164;50.524;8.676;2022-07-15T14:44:15;2.22;;;1.48;;
14169;SDS011;7164;50.524;8.676;2022-07-15T14:46:40;2.20;;;1.30;;
14169;SDS011;7164;50.524;8.676;2022-07-15T14:49:06;3.13;;;1.88;;
14169;SDS011;7164;50.524;8.676;2022-07-15T14:51:31;2.20;;;1.20;;
14169;SDS011;7164;50.524;8.676;2022-07-15T14:53:57;3.22;;;2.10;;
14169;SDS011;7164;50.524;8.676;2022-07-15T14:56:32;5.13;;;1.50;;
14169;SDS011;7164;50.524;8.676;2022-07-15T14:58:57;2.17;;;1.23;;
14169;SDS011;7164;50.524;8.676;2022-07-15T15:01:23;8.13;;;1.60;;
14169;SDS011;7164;50.524;8.676;2022-07-15T15:03:49;2.75;;;1.27;;
14169;SDS011;7164;50.524;8.676;2022-07-15T15:06:14;2.40;;;1.10;;
14169;SDS011;7164;50.524;8.676;2022-07-15T15:08:40;4.70;;;1.17;;
14169;SDS011;7164;50.524;8.676;2022-07-15T15:11:06;3.42;;;1.50;;
14169;SDS011;7164;50.524;8.676;2022-07-15T15:13:31;1.67;;;1.20;;
14169;SDS011;7164;50.524;8.676;2022-07-15T15:15:57;2.00;;;0.98;;
14169;SDS011;7164;50.524;8.676;2022-07-15T15:18:37;7.85;;;1.23;;
14169;SDS011;7164;50.524;8.676;2022-07-15T15:21:03;2.05;;;0.98;;
14169;SDS011;7164;50.524;8.676;2022-07-15T15:23:28;5.00;;;1.23;;
14169;SDS011;7164;50.524;8.676;2022-07-15T15:25:55;2.72;;;1.15;;
14169;SDS011;7164;50.524;8.676;2022-07-15T15:28:55;2.15;;;1.02;;
14169;SDS011;7164;50.524;8.676;2022-07-15T15:31:21;2.25;;;1.10;;
14169;SDS011;7164;50.524;8.676;2022-07-15T15:33:47;2.13;;;1.02;;
14169;SDS011;7164;50.524;8.676;2022-07-15T15:36:13;2.30;;;1.30;;
14169;SDS011;7164;50.524;8.676;2022-07-15T15:38:40;3.38;;;1.30;;
14169;SDS011;7164;50.524;8.676;2022-07-15T15:41:05;1.85;;;0.88;;
14169;SDS011;7164;50.524;8.676;2022-07-15T15:43:31;5.05;;;1.60;;
14169;SDS011;7164;50.524;8.676;2022-07-15T15:45:57;1.73;;;1.23;;
14169;SDS011;7164;50.524;8.676;2022-07-15T15:48:22;3.47;;;1.15;;
14169;SDS011;7164;50.524;8.676;2022-07-15T15:50:48;1.40;;;0.90;;
14169;SDS011;7164;50.524;8.676;2022-07-15T15:53:14;2.60;;;1.00;;
14169;SDS011;7164;50.524;8.676;2022-07-15T15:55:40;2.03;;;0.70;;
14169;SDS011;7164;50.524;8.676;2022-07-15T15:58:05;1.27;;;0.80;;
14169;SDS011;7164;50.524;8.676;2022-07-15T16:00:31;1.60;;;0.90;;
14169;SDS011;7164;50.524;8.676;2022-07-15T16:02:58;1.35;;;1.00;;
14169;SDS011;7164;50.524;8.676;2022-07-15T16:05:23;1.63;;;1.05;;
14169;SDS011;7164;50.524;8.676;2022-07-15T16:07:49;2.22;;;1.35;;